sensor_id;sensor_type;location;lat;lon;timestamp;P1;durP1;ratioP1;P2;durP2;ratioP2
61391;SDS011;47261;52.892;5.738;2023-10-19T00:01:57;10.55;;;4.78;;
61391;SDS011;47261;52.892;5.738;2023-10-19T00:04:24;11.13;;;4.70;;
61391;SDS011;47261;52.892;5.738;2023-10-19T00:06:51;13.13;;;5.35;;
61391;SDS011;47261;52.892;5.738;2023-10-19T00:09:18;12.98;;;5.50;;
61391;SDS011;47261;52.892;5.738;2023-10-19T00:11:45;17.27;;;5.73;;
61391;SDS011;47261;52.892;5.738;2023-10-19T00:14:12;14.60;;;6.55;;
61391;SDS011;47261;52.892;5.738;2023-10-19T00:16:42;17.80;;;6.43;;
61391;SDS011;47261;52.892;5.738;2023-10-19T00:19:15;19.60;;;7.85;;
61391;SDS011;47261;52.892;5.738;2023-10-19T00:21:44;19.75;;;7.72;;
61391;SDS011;47261;52.892;5.738;2023-10-19T00:24:19;15.60;;;6.77;;
61391;SDS011;47261;52.892;5.738;2023-10-19T00:26:47;16.67;;;6.65;;
61391;SDS011;47261;52.892;5.738;2023-10-19T00:29:13;13.85;;;6.55;;
61391;SDS011;47261;52.892;5.738;2023-10-19T00:31:54;16.55;;;7.53;;
61391;SDS011;47261;52.892;5.738;2023-10-19T00:34:21;17.65;;;8.85;;
61391;SDS011;47261;52.892;5.738;2023-10-19T00:36:47;13.27;;;5.53;;
61391;SDS011;47261;52.892;5.738;2023-10-19T00:39:15;14.07;;;5.85;;
61391;SDS011;47261;52.892;5.738;2023-10-19T00:41:46;22.23;;;8.70;;
61391;SDS011;47261;52.892;5.738;2023-10-19T00:44:12;18.13;;;7.15;;
61391;SDS011;47261;52.892;5.738;2023-10-19T00:46:47;16.05;;;7.00;;
61391;SDS011;47261;52.892;5.738;2023-10-19T00:49:16;17.30;;;7.10;;
61391;SDS011;47261;52.892;5.738;2023-10-19T00:51:49;11.93;;;5.38;;
61391;SDS011;47261;52.892;5.738;2023-10-19T00:54:27;15.63;;;6.00;;
61391;SDS011;47261;52.892;5.738;2023-10-19T00:56:58;18.23;;;7.93;;
61391;SDS011;47261;52.892;5.738;2023-10-19T00:59:29;15.93;;;7.22;;
61391;SDS011;47261;52.892;5.738;2023-10-19T01:01:56;18.70;;;9.13;;
61391;SDS011;47261;52.892;5.738;2023-10-19T01:04:40;18.17;;;6.93;;
61391;SDS011;47261;52.892;5.738;2023-10-19T01:07:08;17.23;;;8.15;;
61391;SDS011;47261;52.892;5.738;2023-10-19T01:09:46;19.63;;;6.47;;
61391;SDS011;47261;52.892;5.738;2023-10-19T01:12:12;19.77;;;8.63;;
61391;SDS011;47261;52.892;5.738;2023-10-19T01:15:03;14.67;;;7.40;;
61391;SDS011;47261;52.892;5.738;2023-10-19T01:17:43;14.88;;;6.38;;
61391;SDS011;47261;52.892;5.738;2023-10-19T01:20:12;16.55;;;7.72;;
61391;SDS011;47261;52.892;5.738;2023-10-19T01:25:43;9.65;;;3.80;;
61391;SDS011;47261;52.892;5.738;2023-10-19T01:28:25;20.63;;;9.07;;
61391;SDS011;47261;52.892;5.738;2023-10-19T01:30:53;20.48;;;8.02;;
61391;SDS011;47261;52.892;5.738;2023-10-19T01:33:20;17.50;;;8.13;;
61391;SDS011;47261;52.892;5.738;2023-10-19T01:35:47;12.80;;;5.40;;
61391;SDS011;47261;52.892;5.738;2023-10-19T01:38:31;16.35;;;7.03;;
61391;SDS011;47261;52.892;5.738;2023-10-19T01:41:02;16.10;;;7.63;;
61391;SDS011;47261;52.892;5.738;2023-10-19T01:43:38;19.25;;;8.85;;
61391;SDS011;47261;52.892;5.738;2023-10-19T01:46:07;11.95;;;5.75;;
61391;SDS011;47261;52.892;5.738;2023-10-19T01:48:40;12.95;;;6.15;;
61391;SDS011;47261;52.892;5.738;2023-10-19T01:51:08;10.13;;;4.43;;
61391;SDS011;47261;52.892;5.738;2023-10-19T01:53:39;9.43;;;4.60;;
61391;SDS011;47261;52.892;5.738;2023-10-19T01:56:08;15.13;;;6.20;;
61391;SDS011;47261;52.892;5.738;2023-10-19T01:58:37;10.32;;;4.72;;
61391;SDS011;47261;52.892;5.738;2023-10-19T02:01:04;15.25;;;6.85;;
61391;SDS011;47261;52.892;5.738;2023-10-19T02:03:45;13.00;;;6.10;;
61391;SDS011;47261;52.892;5.738;2023-10-19T02:06:12;10.80;;;4.20;;
61391;SDS011;47261;52.892;5.738;2023-10-19T02:08:51;13.23;;;6.53;;
61391;SDS011;47261;52.892;5.738;2023-10-19T02:11:24;12.50;;;5.35;;
61391;SDS011;47261;52.892;5.738;2023-10-19T02:13:52;10.93;;;5.45;;
61391;SDS011;47261;52.892;5.738;2023-10-19T02:16:19;10.40;;;4.97;;
61391;SDS011;47261;52.892;5.738;2023-10-19T02:18:49;10.13;;;3.57;;
61391;SDS011;47261;52.892;5.738;2023-10-19T02:21:15;12.57;;;5.13;;
61391;SDS011;47261;52.892;5.738;2023-10-19T02:23:47;8.13;;;3.38;;
61391;SDS011;47261;52.892;5.738;2023-10-19T02:26:16;10.48;;;5.40;;
61391;SDS011;47261;52.892;5.738;2023-10-19T02:28:46;8.82;;;3.97;;
61391;SDS011;47261;52.892;5.738;2023-10-19T02:31:12;7.30;;;3.07;;
61391;SDS011;47261;52.892;5.738;2023-10-19T02:33:43;8.63;;;4.53;;
61391;SDS011;47261;52.892;5.738;2023-10-19T02:36:16;10.95;;;3.88;;
61391;SDS011;47261;52.892;5.738;2023-10-19T02:38:44;6.03;;;2.55;;
61391;SDS011;47261;52.892;5.738;2023-10-19T02:41:16;7.53;;;3.30;;
61391;SDS011;47261;52.892;5.738;2023-10-19T02:43:42;6.67;;;2.83;;
61391;SDS011;47261;52.892;5.738;2023-10-19T02:46:15;8.27;;;4.03;;
61391;SDS011;47261;52.892;5.738;2023-10-19T02:48:43;10.15;;;5.22;;
61391;SDS011;47261;52.892;5.738;2023-10-19T02:51:14;7.55;;;3.22;;
61391;SDS011;47261;52.892;5.738;2023-10-19T02:53:40;10.13;;;4.30;;
61391;SDS011;47261;52.892;5.738;2023-10-19T02:56:13;9.15;;;4.72;;
61391;SDS011;47261;52.892;5.738;2023-10-19T02:58:45;7.72;;;3.33;;
61391;SDS011;47261;52.892;5.738;2023-10-19T03:01:17;5.53;;;2.65;;
61391;SDS011;47261;52.892;5.738;2023-10-19T03:03:50;11.00;;;6.03;;
61391;SDS011;47261;52.892;5.738;2023-10-19T03:06:21;11.07;;;4.63;;
61391;SDS011;47261;52.892;5.738;2023-10-19T03:08:47;9.23;;;4.97;;
61391;SDS011;47261;52.892;5.738;2023-10-19T03:11:20;12.05;;;5.88;;
61391;SDS011;47261;52.892;5.738;2023-10-19T03:13:46;10.52;;;5.15;;
61391;SDS011;47261;52.892;5.738;2023-10-19T03:16:15;12.73;;;4.80;;
61391;SDS011;47261;52.892;5.738;2023-10-19T03:18:41;12.02;;;6.53;;
61391;SDS011;47261;52.892;5.738;2023-10-19T03:21:07;10.27;;;4.95;;
61391;SDS011;47261;52.892;5.738;2023-10-19T03:23:35;9.50;;;4.53;;
61391;SDS011;47261;52.892;5.738;2023-10-19T03:26:03;11.87;;;5.03;;
61391;SDS011;47261;52.892;5.738;2023-10-19T03:28:48;12.95;;;6.65;;
61391;SDS011;47261;52.892;5.738;2023-10-19T03:31:19;10.50;;;4.70;;
61391;SDS011;47261;52.892;5.738;2023-10-19T03:33:50;9.98;;;4.88;;
61391;SDS011;47261;52.892;5.738;2023-10-19T03:36:22;13.20;;;5.85;;
61391;SDS011;47261;52.892;5.738;2023-10-19T03:38:49;11.80;;;5.90;;
61391;SDS011;47261;52.892;5.738;2023-10-19T03:41:17;15.68;;;7.60;;
61391;SDS011;47261;52.892;5.738;2023-10-19T03:43:46;14.45;;;6.82;;
61391;SDS011;47261;52.892;5.738;2023-10-19T03:46:13;16.75;;;7.82;;
61391;SDS011;47261;52.892;5.738;2023-10-19T03:48:47;14.02;;;6.57;;
61391;SDS011;47261;52.892;5.738;2023-10-19T03:51:13;14.10;;;6.83;;
61391;SDS011;47261;52.892;5.738;2023-10-19T03:53:39;15.88;;;7.30;;
61391;SDS011;47261;52.892;5.738;2023-10-19T03:56:09;11.00;;;5.32;;
61391;SDS011;47261;52.892;5.738;2023-10-19T03:58:36;14.85;;;7.07;;
61391;SDS011;47261;52.892;5.738;2023-10-19T04:01:04;13.10;;;6.53;;
61391;SDS011;47261;52.892;5.738;2023-10-19T04:03:30;12.27;;;5.25;;
61391;SDS011;47261;52.892;5.738;2023-10-19T04:05:56;12.70;;;6.28;;
61391;SDS011;47261;52.892;5.738;2023-10-19T04:08:28;15.57;;;7.45;;
61391;SDS011;47261;52.892;5.738;2023-10-19T04:10:59;11.67;;;6.10;;
61391;SDS011;47261;52.892;5.738;2023-10-19T04:13:36;15.27;;;7.30;;
61391;SDS011;47261;52.892;5.738;2023-10-19T04:16:05;16.15;;;7.38;;
61391;SDS011;47261;52.892;5.738;2023-10-19T04:18:34;14.05;;;7.50;;
61391;SDS011;47261;52.892;5.738;2023-10-19T04:21:05;15.75;;;8.20;;
61391;SDS011;47261;52.892;5.738;2023-10-19T04:23:30;13.93;;;6.60;;
61391;SDS011;47261;52.892;5.738;2023-10-19T04:26:00;13.93;;;7.03;;
61391;SDS011;47261;52.892;5.738;2023-10-19T04:28:30;15.18;;;7.50;;
61391;SDS011;47261;52.892;5.738;2023-10-19T04:30:58;16.87;;;7.57;;
61391;SDS011;47261;52.892;5.738;2023-10-19T04:33:38;16.00;;;8.27;;
61391;SDS011;47261;52.892;5.738;2023-10-19T04:36:04;14.80;;;8.02;;
61391;SDS011;47261;52.892;5.738;2023-10-19T04:38:33;15.03;;;7.63;;
61391;SDS011;47261;52.892;5.738;2023-10-19T04:41:09;14.38;;;7.68;;
61391;SDS011;47261;52.892;5.738;2023-10-19T04:43:36;17.60;;;8.07;;
61391;SDS011;47261;52.892;5.738;2023-10-19T04:46:06;15.57;;;8.07;;
61391;SDS011;47261;52.892;5.738;2023-10-19T04:48:36;14.05;;;7.30;;
61391;SDS011;47261;52.892;5.738;2023-10-19T04:51:05;12.97;;;6.70;;
61391;SDS011;47261;52.892;5.738;2023-10-19T04:53:37;16.50;;;8.27;;
61391;SDS011;47261;52.892;5.738;2023-10-19T04:56:04;17.38;;;8.23;;
61391;SDS011;47261;52.892;5.738;2023-10-19T04:58:30;14.80;;;7.80;;
61391;SDS011;47261;52.892;5.738;2023-10-19T05:00:56;13.27;;;7.07;;
61391;SDS011;47261;52.892;5.738;2023-10-19T05:03:24;13.32;;;7.57;;
61391;SDS011;47261;52.892;5.738;2023-10-19T05:05:50;16.33;;;8.15;;
61391;SDS011;47261;52.892;5.738;2023-10-19T05:08:16;17.98;;;8.70;;
61391;SDS011;47261;52.892;5.738;2023-10-19T05:10:42;16.93;;;8.93;;
61391;SDS011;47261;52.892;5.738;2023-10-19T05:13:08;15.55;;;8.40;;
61391;SDS011;47261;52.892;5.738;2023-10-19T05:15:33;14.23;;;7.70;;
61391;SDS011;47261;52.892;5.738;2023-10-19T05:17:59;14.60;;;7.40;;
61391;SDS011;47261;52.892;5.738;2023-10-19T05:20:25;18.55;;;8.60;;
61391;SDS011;47261;52.892;5.738;2023-10-19T05:22:51;17.20;;;8.53;;
61391;SDS011;47261;52.892;5.738;2023-10-19T05:25:16;18.10;;;8.83;;
61391;SDS011;47261;52.892;5.738;2023-10-19T05:27:42;19.38;;;8.80;;
61391;SDS011;47261;52.892;5.738;2023-10-19T05:30:10;19.45;;;9.48;;
61391;SDS011;47261;52.892;5.738;2023-10-19T05:32:36;16.10;;;8.20;;
61391;SDS011;47261;52.892;5.738;2023-10-19T05:35:03;18.93;;;9.57;;
61391;SDS011;47261;52.892;5.738;2023-10-19T05:37:30;18.15;;;9.45;;
61391;SDS011;47261;52.892;5.738;2023-10-19T05:39:56;21.27;;;9.98;;
61391;SDS011;47261;52.892;5.738;2023-10-19T05:42:22;20.92;;;10.40;;
61391;SDS011;47261;52.892;5.738;2023-10-19T05:44:48;22.50;;;10.63;;
61391;SDS011;47261;52.892;5.738;2023-10-19T05:47:13;23.38;;;11.38;;
61391;SDS011;47261;52.892;5.738;2023-10-19T05:49:39;24.87;;;10.93;;
61391;SDS011;47261;52.892;5.738;2023-10-19T05:52:04;26.00;;;12.40;;
61391;SDS011;47261;52.892;5.738;2023-10-19T05:54:30;22.40;;;10.00;;
61391;SDS011;47261;52.892;5.738;2023-10-19T05:56:56;21.80;;;10.33;;
61391;SDS011;47261;52.892;5.738;2023-10-19T05:59:22;21.02;;;10.73;;
61391;SDS011;47261;52.892;5.738;2023-10-19T06:01:51;20.20;;;9.93;;
61391;SDS011;47261;52.892;5.738;2023-10-19T06:04:17;20.42;;;10.02;;
61391;SDS011;47261;52.892;5.738;2023-10-19T06:06:43;19.73;;;9.60;;
61391;SDS011;47261;52.892;5.738;2023-10-19T06:09:08;17.52;;;9.73;;
61391;SDS011;47261;52.892;5.738;2023-10-19T06:11:34;20.03;;;10.40;;
61391;SDS011;47261;52.892;5.738;2023-10-19T06:14:03;23.05;;;10.80;;
61391;SDS011;47261;52.892;5.738;2023-10-19T06:16:32;19.75;;;10.65;;
61391;SDS011;47261;52.892;5.738;2023-10-19T06:18:58;17.60;;;9.18;;
61391;SDS011;47261;52.892;5.738;2023-10-19T06:21:24;19.37;;;9.90;;
61391;SDS011;47261;52.892;5.738;2023-10-19T06:23:50;18.73;;;10.07;;
61391;SDS011;47261;52.892;5.738;2023-10-19T06:26:17;18.60;;;9.35;;
61391;SDS011;47261;52.892;5.738;2023-10-19T06:28:43;19.38;;;11.13;;
61391;SDS011;47261;52.892;5.738;2023-10-19T06:31:10;20.40;;;11.18;;
61391;SDS011;47261;52.892;5.738;2023-10-19T06:33:35;19.53;;;10.10;;
61391;SDS011;47261;52.892;5.738;2023-10-19T06:36:04;22.60;;;11.05;;
61391;SDS011;47261;52.892;5.738;2023-10-19T06:38:30;28.20;;;12.63;;
61391;SDS011;47261;52.892;5.738;2023-10-19T06:40:56;25.17;;;13.00;;
61391;SDS011;47261;52.892;5.738;2023-10-19T06:43:22;26.20;;;12.85;;
61391;SDS011;47261;52.892;5.738;2023-10-19T06:45:53;32.85;;;13.93;;
61391;SDS011;47261;52.892;5.738;2023-10-19T06:48:20;25.35;;;12.45;;
61391;SDS011;47261;52.892;5.738;2023-10-19T06:50:46;37.40;;;14.70;;
61391;SDS011;47261;52.892;5.738;2023-10-19T06:53:11;29.35;;;13.25;;
61391;SDS011;47261;52.892;5.738;2023-10-19T06:55:37;25.10;;;12.40;;
61391;SDS011;47261;52.892;5.738;2023-10-19T06:58:03;26.42;;;13.13;;
61391;SDS011;47261;52.892;5.738;2023-10-19T07:00:30;31.50;;;14.18;;
61391;SDS011;47261;52.892;5.738;2023-10-19T07:02:56;25.07;;;12.20;;
61391;SDS011;47261;52.892;5.738;2023-10-19T07:05:22;23.67;;;11.47;;
61391;SDS011;47261;52.892;5.738;2023-10-19T07:07:54;24.60;;;12.35;;
61391;SDS011;47261;52.892;5.738;2023-10-19T07:10:21;26.00;;;11.70;;
61391;SDS011;47261;52.892;5.738;2023-10-19T07:12:48;22.10;;;11.90;;
61391;SDS011;47261;52.892;5.738;2023-10-19T07:15:16;23.80;;;11.27;;
61391;SDS011;47261;52.892;5.738;2023-10-19T07:17:44;23.13;;;10.80;;
61391;SDS011;47261;52.892;5.738;2023-10-19T07:20:11;23.13;;;11.35;;
61391;SDS011;47261;52.892;5.738;2023-10-19T07:22:50;21.80;;;11.77;;
61391;SDS011;47261;52.892;5.738;2023-10-19T07:25:16;25.23;;;13.25;;
61391;SDS011;47261;52.892;5.738;2023-10-19T07:27:46;23.70;;;12.35;;
61391;SDS011;47261;52.892;5.738;2023-10-19T07:30:13;22.40;;;12.57;;
61391;SDS011;47261;52.892;5.738;2023-10-19T07:32:40;20.00;;;11.80;;
61391;SDS011;47261;52.892;5.738;2023-10-19T07:35:06;26.05;;;13.02;;
61391;SDS011;47261;52.892;5.738;2023-10-19T07:37:32;27.25;;;12.35;;
61391;SDS011;47261;52.892;5.738;2023-10-19T07:39:58;26.80;;;12.53;;
61391;SDS011;47261;52.892;5.738;2023-10-19T07:42:24;30.73;;;13.93;;
61391;SDS011;47261;52.892;5.738;2023-10-19T07:44:50;26.07;;;13.17;;
61391;SDS011;47261;52.892;5.738;2023-10-19T07:47:16;28.92;;;13.52;;
61391;SDS011;47261;52.892;5.738;2023-10-19T07:49:42;26.00;;;12.70;;
61391;SDS011;47261;52.892;5.738;2023-10-19T07:52:08;28.27;;;13.13;;
61391;SDS011;47261;52.892;5.738;2023-10-19T07:54:36;26.98;;;11.77;;
61391;SDS011;47261;52.892;5.738;2023-10-19T07:57:03;26.92;;;12.98;;
61391;SDS011;47261;52.892;5.738;2023-10-19T07:59:32;28.45;;;13.98;;
61391;SDS011;47261;52.892;5.738;2023-10-19T08:01:58;24.90;;;12.13;;
61391;SDS011;47261;52.892;5.738;2023-10-19T08:04:28;28.52;;;13.27;;
61391;SDS011;47261;52.892;5.738;2023-10-19T08:06:54;27.10;;;13.50;;
61391;SDS011;47261;52.892;5.738;2023-10-19T08:09:23;29.73;;;12.93;;
61391;SDS011;47261;52.892;5.738;2023-10-19T08:11:49;27.85;;;13.93;;
61391;SDS011;47261;52.892;5.738;2023-10-19T08:14:20;26.77;;;12.83;;
61391;SDS011;47261;52.892;5.738;2023-10-19T08:16:47;27.25;;;12.32;;
61391;SDS011;47261;52.892;5.738;2023-10-19T08:19:12;26.50;;;12.60;;
61391;SDS011;47261;52.892;5.738;2023-10-19T08:21:38;29.33;;;13.13;;
61391;SDS011;47261;52.892;5.738;2023-10-19T08:24:04;28.30;;;13.40;;
61391;SDS011;47261;52.892;5.738;2023-10-19T08:26:30;31.73;;;14.63;;
61391;SDS011;47261;52.892;5.738;2023-10-19T08:28:56;34.90;;;14.95;;
61391;SDS011;47261;52.892;5.738;2023-10-19T08:31:24;33.85;;;14.32;;
61391;SDS011;47261;52.892;5.738;2023-10-19T08:33:49;29.57;;;14.37;;
61391;SDS011;47261;52.892;5.738;2023-10-19T08:36:19;30.98;;;14.25;;
61391;SDS011;47261;52.892;5.738;2023-10-19T08:38:46;35.03;;;14.68;;
61391;SDS011;47261;52.892;5.738;2023-10-19T08:41:13;26.30;;;13.40;;
61391;SDS011;47261;52.892;5.738;2023-10-19T08:43:40;40.37;;;15.33;;
61391;SDS011;47261;52.892;5.738;2023-10-19T08:46:06;37.28;;;15.68;;
61391;SDS011;47261;52.892;5.738;2023-10-19T08:48:35;39.65;;;15.75;;
61391;SDS011;47261;52.892;5.738;2023-10-19T08:51:08;33.28;;;14.60;;
61391;SDS011;47261;52.892;5.738;2023-10-19T08:53:37;34.70;;;14.47;;
61391;SDS011;47261;52.892;5.738;2023-10-19T08:56:09;33.03;;;14.68;;
61391;SDS011;47261;52.892;5.738;2023-10-19T08:58:37;35.13;;;14.77;;
61391;SDS011;47261;52.892;5.738;2023-10-19T09:01:02;35.57;;;13.87;;
61391;SDS011;47261;52.892;5.738;2023-10-19T09:03:35;36.72;;;14.00;;
61391;SDS011;47261;52.892;5.738;2023-10-19T09:06:01;30.67;;;14.07;;
61391;SDS011;47261;52.892;5.738;2023-10-19T09:08:30;34.13;;;15.13;;
61391;SDS011;47261;52.892;5.738;2023-10-19T09:11:08;34.33;;;14.50;;
61391;SDS011;47261;52.892;5.738;2023-10-19T09:13:46;29.50;;;12.37;;
61391;SDS011;47261;52.892;5.738;2023-10-19T09:16:14;29.58;;;13.52;;
61391;SDS011;47261;52.892;5.738;2023-10-19T09:18:40;29.40;;;13.57;;
61391;SDS011;47261;52.892;5.738;2023-10-19T09:21:07;34.50;;;14.15;;
61391;SDS011;47261;52.892;5.738;2023-10-19T09:23:36;28.45;;;12.40;;
61391;SDS011;47261;52.892;5.738;2023-10-19T09:26:03;30.43;;;13.10;;
61391;SDS011;47261;52.892;5.738;2023-10-19T09:28:30;30.55;;;13.23;;
61391;SDS011;47261;52.892;5.738;2023-10-19T09:30:59;30.13;;;12.30;;
61391;SDS011;47261;52.892;5.738;2023-10-19T09:33:25;27.55;;;13.75;;
61391;SDS011;47261;52.892;5.738;2023-10-19T09:35:52;31.30;;;13.45;;
61391;SDS011;47261;52.892;5.738;2023-10-19T09:38:19;34.50;;;14.37;;
61391;SDS011;47261;52.892;5.738;2023-10-19T09:40:50;29.73;;;13.90;;
61391;SDS011;47261;52.892;5.738;2023-10-19T09:43:18;29.70;;;14.23;;
61391;SDS011;47261;52.892;5.738;2023-10-19T09:46:08;27.10;;;13.75;;
61391;SDS011;47261;52.892;5.738;2023-10-19T09:48:40;34.08;;;13.18;;
61391;SDS011;47261;52.892;5.738;2023-10-19T09:51:07;30.87;;;13.90;;
61391;SDS011;47261;52.892;5.738;2023-10-19T09:53:34;33.58;;;16.13;;
61391;SDS011;47261;52.892;5.738;2023-10-19T09:56:01;34.40;;;15.80;;
61391;SDS011;47261;52.892;5.738;2023-10-19T09:58:41;32.65;;;14.50;;
61391;SDS011;47261;52.892;5.738;2023-10-19T10:01:11;38.83;;;14.13;;
61391;SDS011;47261;52.892;5.738;2023-10-19T10:06:27;25.63;;;12.70;;
61391;SDS011;47261;52.892;5.738;2023-10-19T10:08:53;29.58;;;13.80;;
61391;SDS011;47261;52.892;5.738;2023-10-19T10:13:51;30.00;;;13.18;;
61391;SDS011;47261;52.892;5.738;2023-10-19T10:16:21;27.80;;;12.73;;
61391;SDS011;47261;52.892;5.738;2023-10-19T10:18:49;26.90;;;13.18;;
61391;SDS011;47261;52.892;5.738;2023-10-19T10:26:25;26.27;;;13.05;;
61391;SDS011;47261;52.892;5.738;2023-10-19T10:31:46;25.20;;;12.52;;
61391;SDS011;47261;52.892;5.738;2023-10-19T10:37:08;26.70;;;13.48;;
61391;SDS011;47261;52.892;5.738;2023-10-19T10:39:36;27.48;;;13.02;;
61391;SDS011;47261;52.892;5.738;2023-10-19T10:42:04;26.23;;;12.83;;
61391;SDS011;47261;52.892;5.738;2023-10-19T10:47:09;29.40;;;12.20;;
61391;SDS011;47261;52.892;5.738;2023-10-19T10:49:52;26.98;;;14.07;;
61391;SDS011;47261;52.892;5.738;2023-10-19T10:52:23;27.27;;;14.20;;
61391;SDS011;47261;52.892;5.738;2023-10-19T10:54:50;26.60;;;12.97;;
61391;SDS011;47261;52.892;5.738;2023-10-19T10:57:16;29.17;;;14.05;;
61391;SDS011;47261;52.892;5.738;2023-10-19T10:59:43;24.05;;;12.85;;
61391;SDS011;47261;52.892;5.738;2023-10-19T11:02:18;32.07;;;14.33;;
61391;SDS011;47261;52.892;5.738;2023-10-19T11:04:44;24.38;;;13.20;;
61391;SDS011;47261;52.892;5.738;2023-10-19T11:07:17;26.27;;;12.88;;
61391;SDS011;47261;52.892;5.738;2023-10-19T11:09:45;28.27;;;13.43;;
61391;SDS011;47261;52.892;5.738;2023-10-19T11:12:12;26.80;;;13.60;;
61391;SDS011;47261;52.892;5.738;2023-10-19T11:14:50;22.67;;;11.40;;
61391;SDS011;47261;52.892;5.738;2023-10-19T11:17:18;24.67;;;12.50;;
61391;SDS011;47261;52.892;5.738;2023-10-19T11:19:44;25.13;;;12.88;;
61391;SDS011;47261;52.892;5.738;2023-10-19T11:22:09;25.23;;;13.47;;
61391;SDS011;47261;52.892;5.738;2023-10-19T11:24:36;25.42;;;12.57;;
61391;SDS011;47261;52.892;5.738;2023-10-19T11:27:05;22.25;;;13.07;;
61391;SDS011;47261;52.892;5.738;2023-10-19T11:29:33;20.53;;;11.33;;
61391;SDS011;47261;52.892;5.738;2023-10-19T11:32:01;23.45;;;13.30;;
61391;SDS011;47261;52.892;5.738;2023-10-19T11:34:28;20.58;;;11.02;;
61391;SDS011;47261;52.892;5.738;2023-10-19T11:36:57;22.77;;;11.10;;
61391;SDS011;47261;52.892;5.738;2023-10-19T11:39:25;22.30;;;11.23;;
61391;SDS011;47261;52.892;5.738;2023-10-19T11:41:51;24.33;;;12.43;;
61391;SDS011;47261;52.892;5.738;2023-10-19T11:44:18;24.13;;;11.95;;
61391;SDS011;47261;52.892;5.738;2023-10-19T11:46:44;25.83;;;13.98;;
61391;SDS011;47261;52.892;5.738;2023-10-19T11:49:10;26.73;;;13.40;;
61391;SDS011;47261;52.892;5.738;2023-10-19T11:51:36;30.70;;;14.38;;
61391;SDS011;47261;52.892;5.738;2023-10-19T11:54:04;25.75;;;14.13;;
61391;SDS011;47261;52.892;5.738;2023-10-19T11:56:31;27.40;;;13.68;;
61391;SDS011;47261;52.892;5.738;2023-10-19T11:58:57;23.07;;;11.43;;
61391;SDS011;47261;52.892;5.738;2023-10-19T12:01:22;29.13;;;13.98;;
61391;SDS011;47261;52.892;5.738;2023-10-19T12:03:50;22.95;;;11.43;;
61391;SDS011;47261;52.892;5.738;2023-10-19T12:06:16;23.57;;;12.57;;
61391;SDS011;47261;52.892;5.738;2023-10-19T12:08:44;23.20;;;12.68;;
61391;SDS011;47261;52.892;5.738;2023-10-19T12:11:10;23.77;;;12.73;;
61391;SDS011;47261;52.892;5.738;2023-10-19T12:13:43;26.90;;;13.90;;
61391;SDS011;47261;52.892;5.738;2023-10-19T12:16:10;27.23;;;14.15;;
61391;SDS011;47261;52.892;5.738;2023-10-19T12:18:40;29.27;;;15.07;;
61391;SDS011;47261;52.892;5.738;2023-10-19T12:21:07;29.77;;;14.75;;
61391;SDS011;47261;52.892;5.738;2023-10-19T12:23:38;24.80;;;13.40;;
61391;SDS011;47261;52.892;5.738;2023-10-19T12:26:08;26.25;;;13.27;;
61391;SDS011;47261;52.892;5.738;2023-10-19T12:28:39;26.20;;;13.43;;
61391;SDS011;47261;52.892;5.738;2023-10-19T12:31:07;25.17;;;13.07;;
61391;SDS011;47261;52.892;5.738;2023-10-19T12:33:36;26.95;;;14.27;;
61391;SDS011;47261;52.892;5.738;2023-10-19T12:36:03;26.40;;;13.85;;
61391;SDS011;47261;52.892;5.738;2023-10-19T12:38:49;27.67;;;13.35;;
61391;SDS011;47261;52.892;5.738;2023-10-19T12:41:16;31.63;;;15.43;;
61391;SDS011;47261;52.892;5.738;2023-10-19T12:43:43;23.83;;;13.63;;
61391;SDS011;47261;52.892;5.738;2023-10-19T12:46:09;29.63;;;13.82;;
61391;SDS011;47261;52.892;5.738;2023-10-19T12:48:36;20.95;;;11.57;;
61391;SDS011;47261;52.892;5.738;2023-10-19T12:51:02;25.20;;;13.83;;
61391;SDS011;47261;52.892;5.738;2023-10-19T12:53:29;30.63;;;15.23;;
61391;SDS011;47261;52.892;5.738;2023-10-19T12:55:54;28.02;;;14.02;;
61391;SDS011;47261;52.892;5.738;2023-10-19T12:58:20;29.10;;;14.23;;
61391;SDS011;47261;52.892;5.738;2023-10-19T13:00:46;28.75;;;14.10;;
61391;SDS011;47261;52.892;5.738;2023-10-19T13:03:14;28.98;;;14.15;;
61391;SDS011;47261;52.892;5.738;2023-10-19T13:05:43;25.43;;;14.80;;
61391;SDS011;47261;52.892;5.738;2023-10-19T13:08:10;31.00;;;15.68;;
61391;SDS011;47261;52.892;5.738;2023-10-19T13:10:40;30.52;;;15.45;;
61391;SDS011;47261;52.892;5.738;2023-10-19T13:13:10;28.88;;;14.23;;
61391;SDS011;47261;52.892;5.738;2023-10-19T13:15:37;29.38;;;13.85;;
61391;SDS011;47261;52.892;5.738;2023-10-19T13:18:05;23.50;;;12.77;;
61391;SDS011;47261;52.892;5.738;2023-10-19T13:20:32;29.13;;;14.27;;
61391;SDS011;47261;52.892;5.738;2023-10-19T13:23:03;33.78;;;16.17;;
61391;SDS011;47261;52.892;5.738;2023-10-19T13:25:32;26.95;;;13.90;;
61391;SDS011;47261;52.892;5.738;2023-10-19T13:28:22;26.17;;;12.75;;
61391;SDS011;47261;52.892;5.738;2023-10-19T13:30:48;23.43;;;12.47;;
61391;SDS011;47261;52.892;5.738;2023-10-19T13:33:15;33.20;;;15.68;;
61391;SDS011;47261;52.892;5.738;2023-10-19T13:35:43;25.85;;;13.20;;
61391;SDS011;47261;52.892;5.738;2023-10-19T13:38:11;24.43;;;11.43;;
61391;SDS011;47261;52.892;5.738;2023-10-19T13:40:39;25.88;;;13.55;;
61391;SDS011;47261;52.892;5.738;2023-10-19T13:43:05;29.08;;;13.32;;
61391;SDS011;47261;52.892;5.738;2023-10-19T13:45:36;27.13;;;13.80;;
61391;SDS011;47261;52.892;5.738;2023-10-19T13:48:05;25.58;;;12.45;;
61391;SDS011;47261;52.892;5.738;2023-10-19T13:50:32;21.30;;;10.73;;
61391;SDS011;47261;52.892;5.738;2023-10-19T13:52:59;20.85;;;11.27;;
61391;SDS011;47261;52.892;5.738;2023-10-19T13:55:28;23.95;;;12.52;;
61391;SDS011;47261;52.892;5.738;2023-10-19T13:57:55;24.73;;;11.63;;
61391;SDS011;47261;52.892;5.738;2023-10-19T14:00:21;18.58;;;9.80;;
61391;SDS011;47261;52.892;5.738;2023-10-19T14:02:55;17.83;;;9.13;;
61391;SDS011;47261;52.892;5.738;2023-10-19T14:05:25;24.77;;;10.60;;
61391;SDS011;47261;52.892;5.738;2023-10-19T14:07:51;22.58;;;10.32;;
61391;SDS011;47261;52.892;5.738;2023-10-19T14:10:17;18.97;;;10.30;;
61391;SDS011;47261;52.892;5.738;2023-10-19T14:12:45;15.77;;;8.50;;
61391;SDS011;47261;52.892;5.738;2023-10-19T14:15:15;20.83;;;11.63;;
61391;SDS011;47261;52.892;5.738;2023-10-19T14:17:46;25.50;;;11.27;;
61391;SDS011;47261;52.892;5.738;2023-10-19T14:20:16;23.48;;;12.27;;
61391;SDS011;47261;52.892;5.738;2023-10-19T14:22:43;21.40;;;10.80;;
61391;SDS011;47261;52.892;5.738;2023-10-19T14:25:11;19.75;;;9.60;;
61391;SDS011;47261;52.892;5.738;2023-10-19T14:27:38;24.17;;;12.07;;
61391;SDS011;47261;52.892;5.738;2023-10-19T14:30:09;18.92;;;9.95;;
61391;SDS011;47261;52.892;5.738;2023-10-19T14:32:38;20.02;;;10.27;;
61391;SDS011;47261;52.892;5.738;2023-10-19T14:35:05;21.27;;;9.10;;
61391;SDS011;47261;52.892;5.738;2023-10-19T14:37:34;21.00;;;10.88;;
61391;SDS011;47261;52.892;5.738;2023-10-19T14:40:00;19.65;;;9.80;;
61391;SDS011;47261;52.892;5.738;2023-10-19T14:42:25;19.13;;;10.43;;
61391;SDS011;47261;52.892;5.738;2023-10-19T14:44:55;20.42;;;10.95;;
61391;SDS011;47261;52.892;5.738;2023-10-19T14:47:21;20.47;;;10.63;;
61391;SDS011;47261;52.892;5.738;2023-10-19T14:49:46;24.88;;;13.30;;
61391;SDS011;47261;52.892;5.738;2023-10-19T14:52:12;21.90;;;11.57;;
61391;SDS011;47261;52.892;5.738;2023-10-19T14:54:37;25.20;;;12.73;;
61391;SDS011;47261;52.892;5.738;2023-10-19T14:57:03;26.73;;;12.17;;
61391;SDS011;47261;52.892;5.738;2023-10-19T14:59:29;26.27;;;12.83;;